Time;durP1;ratioP1;P1;durP2;ratioP2;P2;SDS_P1;SDS_P2;PMS_P1;PMS_P2;Temp;Humidity;BMP_temperature;BMP_pressure;BME280_temperature;BME280_humidity;BME280_pressure;Samples;Min_cycle;Max_cycle;Signal;HPM_P1;HPM_P2
2023/01/21 00:01:13;;;;;;;38.23;22.47;;;2.60;99.90;;;;;;5044354;28;20486;-62
2023/01/21 00:03:43;;;;;;;40.00;22.47;;;2.50;99.90;;;;;;5055860;28;20467;-62
2023/01/21 00:06:13;;;;;;;35.03;21.33;;;2.50;99.90;;;;;;5043018;28;21044;-62
2023/01/21 00:08:41;;;;;;;37.13;22.53;;;2.50;99.90;;;;;;5035889;28;20521;-62
2023/01/21 00:11:13;;;;;;;33.70;21.10;;;2.60;99.90;;;;;;5036322;28;20464;-62
2023/01/21 00:13:41;;;;;;;30.33;19.03;;;2.50;99.90;;;;;;5035823;28;20459;-61
2023/01/21 00:16:11;;;;;;;36.27;20.37;;;2.50;99.90;;;;;;5036160;28;20465;-62
2023/01/21 00:18:39;;;;;;;31.63;19.90;;;2.50;99.90;;;;;;5035643;28;20527;-62
2023/01/21 00:21:09;;;;;;;31.90;20.27;;;2.60;99.90;;;;;;5035505;28;20467;-62
2023/01/21 00:23:37;;;;;;;27.90;18.53;;;2.50;99.90;;;;;;5035908;28;20960;-62
2023/01/21 00:26:07;;;;;;;30.17;18.93;;;2.50;99.90;;;;;;5035748;28;20825;-62
2023/01/21 00:28:37;;;;;;;34.93;19.77;;;2.50;99.90;;;;;;5047033;28;20476;-62
2023/01/21 00:31:06;;;;;;;31.50;18.83;;;2.60;99.90;;;;;;5046923;28;20470;-62
2023/01/21 00:33:36;;;;;;;26.40;16.27;;;2.60;99.90;;;;;;5055616;28;20467;-62
2023/01/21 00:36:06;;;;;;;32.33;19.83;;;2.80;99.90;;;;;;5042746;28;20459;-62
2023/01/21 00:38:36;;;;;;;27.97;17.43;;;2.90;99.90;;;;;;5035322;28;20485;-62
2023/01/21 00:41:06;;;;;;;26.03;16.73;;;2.70;99.90;;;;;;5035685;28;20469;-62
2023/01/21 00:43:35;;;;;;;29.33;17.07;;;2.80;99.90;;;;;;5035366;28;20457;-61
2023/01/21 00:46:03;;;;;;;24.20;15.30;;;2.60;99.90;;;;;;5035311;28;20468;-62
2023/01/21 00:48:32;;;;;;;30.73;18.87;;;2.70;99.90;;;;;;5035652;28;20468;-61
2023/01/21 00:51:00;;;;;;;28.40;17.50;;;2.60;99.90;;;;;;5035146;28;20460;-62
2023/01/21 00:53:29;;;;;;;27.40;17.17;;;2.70;99.90;;;;;;5034882;28;20483;-62
2023/01/21 00:56:00;;;;;;;26.50;17.30;;;2.60;99.90;;;;;;5035023;28;20464;-62
2023/01/21 00:58:29;;;;;;;24.47;16.17;;;2.60;99.90;;;;;;5034612;28;20852;-62
2023/01/21 01:01:01;;;;;;;24.27;15.73;;;2.50;99.90;;;;;;5045002;28;21001;-61
2023/01/21 01:03:30;;;;;;;27.83;18.27;;;2.50;99.90;;;;;;5055124;28;20795;-62
2023/01/21 01:06:02;;;;;;;28.50;18.90;;;2.50;99.90;;;;;;5043326;28;20475;-62
2023/01/21 01:08:30;;;;;;;28.30;18.63;;;2.50;99.90;;;;;;5035094;28;20993;-62
2023/01/21 01:11:00;;;;;;;32.20;18.97;;;2.40;99.90;;;;;;5035264;28;20480;-62
2023/01/21 01:13:29;;;;;;;27.27;17.80;;;2.40;99.90;;;;;;5033955;28;20465;-61
2023/01/21 01:15:58;;;;;;;33.73;19.67;;;2.50;99.90;;;;;;5035247;28;20467;-61
2023/01/21 01:18:28;;;;;;;29.83;19.43;;;2.50;99.90;;;;;;5034827;28;21015;-61
2023/01/21 01:20:57;;;;;;;32.50;18.97;;;2.60;99.90;;;;;;5034885;28;20467;-62
2023/01/21 01:23:25;;;;;;;33.97;20.67;;;2.80;99.90;;;;;;5034959;28;20486;-62
2023/01/21 01:25:58;;;;;;;34.13;20.63;;;2.90;99.90;;;;;;5034632;28;20460;-62
2023/01/21 01:28:28;;;;;;;38.87;22.63;;;2.90;99.90;;;;;;5040305;28;20563;-61
2023/01/21 01:30:57;;;;;;;35.33;21.10;;;2.90;99.90;;;;;;5045947;28;20883;-62
2023/01/21 01:33:25;;;;;;;38.17;22.40;;;2.80;99.90;;;;;;5054526;28;20466;-62
2023/01/21 01:35:53;;;;;;;32.07;19.00;;;2.70;99.90;;;;;;5041302;28;20963;-62
2023/01/21 01:38:23;;;;;;;35.90;21.53;;;2.80;99.90;;;;;;5034382;28;21074;-62
2023/01/21 01:40:52;;;;;;;40.00;22.10;;;2.70;99.90;;;;;;5034554;28;20477;-61
2023/01/21 01:43:23;;;;;;;38.30;23.37;;;2.70;99.90;;;;;;5034637;28;20562;-62
2023/01/21 01:45:53;;;;;;;37.20;22.60;;;2.70;99.90;;;;;;5034338;28;20476;-61
2023/01/21 01:48:27;;;;;;;37.93;22.33;;;2.70;99.90;;;;;;5037016;28;20477;-62
2023/01/21 01:50:57;;;;;;;33.67;19.53;;;2.60;99.90;;;;;;5032030;28;20480;-62
2023/01/21 01:53:26;;;;;;;35.07;19.20;;;2.70;99.90;;;;;;5034076;28;20519;-61
2023/01/21 01:55:55;;;;;;;37.80;21.37;;;2.90;99.90;;;;;;5034303;28;20470;-62
2023/01/21 01:58:24;;;;;;;38.73;22.37;;;3.00;99.90;;;;;;5039183;28;20484;-62
2023/01/21 02:00:53;;;;;;;34.27;19.30;;;3.10;99.90;;;;;;5045277;28;21009;-62
2023/01/21 02:06:08;;;;;;;39.37;21.77;;;3.10;99.90;;;;;;5038695;28;20470;-62
2023/01/21 02:08:36;;;;;;;35.50;21.53;;;2.80;99.90;;;;;;5034025;28;20472;-62
2023/01/21 02:11:11;;;;;;;34.87;20.87;;;2.70;99.90;;;;;;5033797;28;20465;-62
2023/01/21 02:13:42;;;;;;;31.10;19.73;;;2.50;99.90;;;;;;5034078;28;20470;-62
2023/01/21 02:16:31;;;;;;;30.63;18.63;;;2.40;99.90;;;;;;5034025;28;20465;-62
2023/01/21 02:19:14;;;;;;;29.27;17.87;;;2.50;99.90;;;;;;5033747;28;20485;-62
2023/01/21 02:22:02;;;;;;;28.47;17.13;;;2.60;99.90;;;;;;5033589;28;20480;-62
2023/01/21 02:25:18;;;;;;;27.97;16.30;;;2.70;99.90;;;;;;5033419;28;20473;-62
2023/01/21 02:27:53;;;;;;;29.40;17.93;;;2.70;99.90;;;;;;5033897;28;21039;-62
2023/01/21 02:30:52;;;;;;;29.17;18.43;;;2.50;99.90;;;;;;5044566;28;20480;-62
2023/01/21 02:33:39;;;;;;;33.33;18.60;;;2.40;99.90;;;;;;5053508;28;20462;-62
2023/01/21 02:36:26;;;;;;;32.77;18.23;;;2.20;99.90;;;;;;5027500;28;20478;-62
2023/01/21 02:39:03;;;;;;;28.90;18.10;;;2.10;99.90;;;;;;5033195;28;20483;-62
2023/01/21 02:41:43;;;;;;;29.80;17.80;;;2.10;99.90;;;;;;5033331;28;20485;-62
2023/01/21 02:44:16;;;;;;;29.93;17.73;;;2.30;99.90;;;;;;5033614;28;20479;-62
2023/01/21 02:46:49;;;;;;;32.53;18.00;;;2.30;99.90;;;;;;5032977;28;20464;-62
2023/01/21 02:49:26;;;;;;;30.43;17.57;;;2.40;99.90;;;;;;5033291;28;20523;-62
2023/01/21 02:51:54;;;;;;;33.90;19.97;;;2.50;99.90;;;;;;5032457;28;20471;-62
2023/01/21 02:54:49;;;;;;;31.50;18.53;;;2.50;99.90;;;;;;5032947;28;20504;-62
2023/01/21 02:57:23;;;;;;;35.83;21.20;;;2.40;99.90;;;;;;5033077;28;20460;-62
2023/01/21 02:59:54;;;;;;;35.23;21.53;;;2.10;99.90;;;;;;5041898;28;20488;-62
2023/01/21 03:02:34;;;;;;;34.70;19.23;;;2.10;99.90;;;;;;5041235;28;20824;-62
2023/01/21 03:05:11;;;;;;;32.53;19.97;;;2.00;99.90;;;;;;5049463;28;20680;-62
2023/01/21 03:07:46;;;;;;;32.00;20.33;;;1.90;99.90;;;;;;5032832;28;20480;-62
2023/01/21 03:10:24;;;;;;;31.97;19.83;;;2.00;99.90;;;;;;5033127;28;20504;-62
2023/01/21 03:13:00;;;;;;;32.83;17.87;;;1.90;99.90;;;;;;5032835;28;20472;-62
2023/01/21 03:18:26;;;;;;;30.73;18.30;;;2.10;99.90;;;;;;5032591;28;20508;-62
2023/01/21 03:20:59;;;;;;;29.63;17.43;;;2.00;99.90;;;;;;5032450;28;20476;-62
2023/01/21 03:23:32;;;;;;;32.17;19.77;;;2.10;99.90;;;;;;5032709;28;20469;-61
2023/01/21 03:26:01;;;;;;;28.87;16.37;;;1.90;99.90;;;;;;5032685;28;20944;-62
2023/01/21 03:28:32;;;;;;;27.27;16.23;;;1.90;99.90;;;;;;5042678;28;20463;-62
2023/01/21 03:31:05;;;;;;;33.73;18.53;;;1.90;99.90;;;;;;5044043;28;20472;-62
2023/01/21 03:33:37;;;;;;;31.23;19.00;;;1.90;99.90;;;;;;5046687;28;20475;-61
2023/01/21 03:36:12;;;;;;;30.07;17.13;;;1.70;99.90;;;;;;5033575;28;20468;-62
2023/01/21 03:38:45;;;;;;;31.80;18.30;;;1.70;99.90;;;;;;5036734;28;20832;-62
2023/01/21 03:41:17;;;;;;;29.87;16.77;;;1.60;99.90;;;;;;5036659;28;20472;-62
2023/01/21 03:43:45;;;;;;;29.87;17.37;;;1.60;99.90;;;;;;5039290;28;20469;-61
2023/01/21 03:46:20;;;;;;;25.67;15.43;;;1.60;99.90;;;;;;5036469;28;20476;-62
2023/01/21 03:48:52;;;;;;;34.87;19.67;;;1.70;99.90;;;;;;5036113;28;20471;-62
2023/01/21 03:51:25;;;;;;;34.73;20.07;;;1.70;99.90;;;;;;5036563;28;20918;-62
2023/01/21 03:53:56;;;;;;;34.30;18.47;;;1.60;99.90;;;;;;5036530;28;20572;-62
2023/01/21 03:56:25;;;;;;;33.80;19.67;;;1.50;99.90;;;;;;5036258;28;20889;-62
2023/01/21 03:58:53;;;;;;;34.07;20.17;;;1.40;99.90;;;;;;5048488;28;20479;-61
2023/01/21 04:01:22;;;;;;;37.63;20.70;;;1.40;99.90;;;;;;5049311;28;21058;-62
2023/01/21 04:03:50;;;;;;;33.57;20.30;;;1.40;99.90;;;;;;5055022;28;20476;-62
2023/01/21 04:06:21;;;;;;;32.53;17.70;;;1.40;99.90;;;;;;5036808;28;20475;-62
2023/01/21 04:08:49;;;;;;;34.03;19.77;;;1.50;99.90;;;;;;5036014;28;20456;-62
2023/01/21 04:11:17;;;;;;;31.37;18.83;;;1.50;99.90;;;;;;5036143;28;20464;-62
2023/01/21 04:13:45;;;;;;;34.63;19.73;;;1.50;99.90;;;;;;5035966;28;20471;-62
2023/01/21 04:16:14;;;;;;;32.43;18.07;;;1.70;99.90;;;;;;5036032;28;20554;-62
2023/01/21 04:18:42;;;;;;;35.37;19.77;;;1.70;99.90;;;;;;5035604;28;20460;-61
2023/01/21 04:21:10;;;;;;;31.30;17.37;;;1.80;99.90;;;;;;5028078;28;20473;-61
2023/01/21 04:23:39;;;;;;;34.40;19.20;;;1.80;99.90;;;;;;5035684;28;20470;-62
2023/01/21 04:26:07;;;;;;;37.63;20.10;;;1.80;99.90;;;;;;5036187;28;20472;-62
2023/01/21 04:28:35;;;;;;;30.03;18.53;;;1.80;99.90;;;;;;5046983;28;20480;-62
2023/01/21 04:31:03;;;;;;;35.13;20.13;;;1.80;99.90;;;;;;5047125;28;20474;-61
2023/01/21 04:33:31;;;;;;;30.13;17.40;;;1.90;99.90;;;;;;5055714;28;20955;-61
2023/01/21 04:36:00;;;;;;;37.97;20.97;;;1.80;99.90;;;;;;5047367;28;20823;-61
2023/01/21 04:38:28;;;;;;;35.90;20.43;;;1.70;99.90;;;;;;5055353;28;20457;-62
2023/01/21 04:40:58;;;;;;;31.87;18.97;;;1.70;99.90;;;;;;5055684;28;20549;-62
2023/01/21 04:43:26;;;;;;;29.87;18.20;;;1.60;99.90;;;;;;5055477;28;20970;-61
2023/01/21 04:45:54;;;;;;;32.00;19.40;;;1.60;99.90;;;;;;5055457;28;20459;-61
2023/01/21 04:48:22;;;;;;;35.80;21.17;;;1.70;99.90;;;;;;5055262;28;20521;-61
2023/01/21 04:50:50;;;;;;;34.67;20.23;;;1.70;99.90;;;;;;5035683;28;20456;-61
2023/01/21 04:53:18;;;;;;;36.13;20.43;;;1.60;99.90;;;;;;5035333;28;20469;-62
2023/01/21 04:55:46;;;;;;;28.43;16.77;;;1.70;99.90;;;;;;5033980;28;20492;-62
2023/01/21 04:58:15;;;;;;;31.63;16.93;;;1.70;99.90;;;;;;5041752;28;20469;-61
2023/01/21 05:00:43;;;;;;;34.87;20.70;;;1.80;99.90;;;;;;5039591;28;20488;-61
2023/01/21 05:03:11;;;;;;;37.50;19.83;;;1.70;99.90;;;;;;5039222;28;20471;-62
2023/01/21 05:05:39;;;;;;;33.47;19.80;;;1.70;99.90;;;;;;5043329;28;20994;-61
2023/01/21 05:08:07;;;;;;;31.27;19.13;;;1.70;99.90;;;;;;5034887;28;20456;-61
2023/01/21 05:10:35;;;;;;;30.40;17.83;;;1.60;99.90;;;;;;5034458;28;20475;-62
2023/01/21 05:13:03;;;;;;;33.60;19.63;;;1.70;99.90;;;;;;5032318;28;20467;-61
2023/01/21 05:15:33;;;;;;;28.13;16.13;;;1.60;99.90;;;;;;5034314;28;20475;-61
2023/01/21 05:18:01;;;;;;;30.90;17.90;;;1.80;99.90;;;;;;5034851;28;20475;-62
2023/01/21 05:20:29;;;;;;;35.50;19.67;;;1.80;99.90;;;;;;5034264;28;20496;-61
2023/01/21 05:22:57;;;;;;;34.47;19.80;;;1.80;99.90;;;;;;5034793;28;20471;-62
2023/01/21 05:25:25;;;;;;;35.60;20.83;;;1.70;99.90;;;;;;5034535;28;20895;-61
2023/01/21 05:27:54;;;;;;;33.53;20.40;;;1.60;99.90;;;;;;5034735;28;20944;-62
2023/01/21 05:30:22;;;;;;;33.40;19.33;;;1.50;99.90;;;;;;5033637;28;20468;-62
2023/01/21 05:32:53;;;;;;;32.17;18.63;;;1.60;99.90;;;;;;5036386;28;20474;-62
2023/01/21 05:35:22;;;;;;;34.17;19.33;;;1.60;99.90;;;;;;5034266;28;20987;-62
2023/01/21 05:37:50;;;;;;;33.17;19.57;;;1.60;99.90;;;;;;5034459;28;20510;-62
2023/01/21 05:40:19;;;;;;;30.83;17.63;;;1.60;99.90;;;;;;5034197;28;20992;-61
2023/01/21 05:42:47;;;;;;;33.80;19.80;;;1.60;99.90;;;;;;5033927;28;20983;-61
2023/01/21 05:45:15;;;;;;;35.07;20.90;;;1.60;99.90;;;;;;5036458;28;20838;-62
2023/01/21 05:47:43;;;;;;;34.47;19.37;;;1.80;99.90;;;;;;5031399;28;20464;-61
2023/01/21 05:50:13;;;;;;;35.13;19.17;;;1.60;99.90;;;;;;5033824;28;20478;-61
2023/01/21 05:52:41;;;;;;;35.07;20.67;;;1.50;99.90;;;;;;5034390;28;20959;-61
2023/01/21 05:55:10;;;;;;;34.90;19.43;;;1.50;99.90;;;;;;5034036;28;20535;-61
2023/01/21 05:57:38;;;;;;;33.20;19.03;;;1.50;99.90;;;;;;5037390;28;20967;-61
2023/01/21 06:00:07;;;;;;;30.00;18.93;;;1.50;99.90;;;;;;5045111;28;20494;-61
2023/01/21 06:02:35;;;;;;;30.13;18.83;;;1.50;99.90;;;;;;5038099;28;20471;-61
2023/01/21 06:05:03;;;;;;;33.37;19.53;;;1.50;99.90;;;;;;5044981;28;20853;-61
2023/01/21 06:07:33;;;;;;;32.20;18.37;;;1.40;99.90;;;;;;5053712;28;20942;-61
2023/01/21 06:10:01;;;;;;;33.97;19.30;;;1.40;99.90;;;;;;5053840;28;20459;-61
2023/01/21 06:12:29;;;;;;;31.60;18.37;;;1.50;99.90;;;;;;5053578;28;20467;-61
2023/01/21 06:14:58;;;;;;;30.83;17.60;;;1.50;99.90;;;;;;5053736;28;20838;-62
2023/01/21 06:17:26;;;;;;;33.03;19.87;;;1.70;99.90;;;;;;5053476;28;20463;-59
2023/01/21 06:19:54;;;;;;;31.33;18.57;;;1.60;99.90;;;;;;5053511;28;20574;-62
2023/01/21 06:22:22;;;;;;;34.33;18.50;;;1.50;99.90;;;;;;5053810;28;20478;-61
2023/01/21 06:24:51;;;;;;;36.73;20.03;;;1.60;99.90;;;;;;5038203;28;20490;-61
2023/01/21 06:27:19;;;;;;;32.00;19.33;;;1.60;99.90;;;;;;5034518;28;20956;-61
2023/01/21 06:29:47;;;;;;;36.57;20.30;;;1.80;99.90;;;;;;5045076;28;20472;-62
2023/01/21 06:32:15;;;;;;;37.30;21.03;;;1.90;99.90;;;;;;5051159;28;20475;-62
2023/01/21 06:34:43;;;;;;;35.23;20.70;;;1.70;99.90;;;;;;5041190;28;20956;-61
2023/01/21 06:37:13;;;;;;;39.90;20.57;;;1.60;99.90;;;;;;5013949;28;20477;-62
2023/01/21 06:39:41;;;;;;;35.83;20.07;;;1.60;99.90;;;;;;5025656;28;20479;-61
2023/01/21 06:42:11;;;;;;;35.40;19.73;;;1.60;99.90;;;;;;5032753;28;20475;-62
2023/01/21 06:44:39;;;;;;;35.33;20.17;;;1.80;99.90;;;;;;5032510;28;20475;-61
2023/01/21 06:47:07;;;;;;;40.30;20.97;;;1.70;99.90;;;;;;5032411;28;20464;-61
2023/01/21 06:49:35;;;;;;;36.97;20.07;;;1.70;99.90;;;;;;5030146;28;20468;-61
2023/01/21 06:52:04;;;;;;;37.20;20.50;;;1.80;99.90;;;;;;5032730;28;20452;-61
2023/01/21 06:54:32;;;;;;;42.17;22.90;;;1.90;99.90;;;;;;5032409;28;20473;-62
2023/01/21 06:57:01;;;;;;;40.80;22.17;;;1.80;99.90;;;;;;5032506;28;20460;-61
2023/01/21 06:59:30;;;;;;;40.30;21.57;;;1.70;99.90;;;;;;5036553;28;20967;-61
2023/01/21 07:01:58;;;;;;;39.07;21.23;;;1.70;99.90;;;;;;5031435;28;21075;-61
2023/01/21 07:04:27;;;;;;;43.93;22.80;;;1.70;99.90;;;;;;5032470;28;20465;-61
2023/01/21 07:06:55;;;;;;;40.90;21.90;;;1.70;99.90;;;;;;5031819;28;20471;-61
2023/01/21 07:09:24;;;;;;;41.57;21.57;;;1.70;99.90;;;;;;5032811;28;20517;-61
2023/01/21 07:11:52;;;;;;;37.60;20.63;;;1.60;99.90;;;;;;5032290;28;20909;-61
2023/01/21 07:14:20;;;;;;;39.40;21.67;;;1.60;99.90;;;;;;5032880;28;20548;-62
2023/01/21 07:16:49;;;;;;;41.60;22.80;;;1.60;99.90;;;;;;5032392;28;20464;-61
2023/01/21 07:19:17;;;;;;;41.10;23.13;;;1.60;99.90;;;;;;5032239;28;20475;-62
2023/01/21 07:21:45;;;;;;;42.13;21.67;;;1.60;99.90;;;;;;5032277;28;20972;-61
2023/01/21 07:24:13;;;;;;;39.57;21.53;;;1.70;99.90;;;;;;5033026;28;20472;-62
2023/01/21 07:26:42;;;;;;;38.27;21.87;;;1.70;99.90;;;;;;5028968;28;20817;-62
2023/01/21 07:29:10;;;;;;;38.83;20.67;;;1.70;99.90;;;;;;5041225;28;20504;-61
2023/01/21 07:31:38;;;;;;;43.83;23.27;;;1.90;99.90;;;;;;5036182;28;20481;-62
2023/01/21 07:34:08;;;;;;;43.30;23.77;;;1.90;99.90;;;;;;5042307;28;20474;-61
2023/01/21 07:36:36;;;;;;;44.50;22.93;;;1.90;99.90;;;;;;5048037;28;20471;-61
2023/01/21 07:39:04;;;;;;;44.03;24.30;;;1.90;99.90;;;;;;5049538;28;20836;-62
2023/01/21 07:41:32;;;;;;;44.80;21.70;;;2.00;99.90;;;;;;5033227;28;20860;-61
2023/01/21 07:44:00;;;;;;;43.40;22.53;;;2.00;99.90;;;;;;5032485;28;20471;-61
2023/01/21 07:46:28;;;;;;;40.00;22.37;;;2.00;99.90;;;;;;5032496;28;20472;-62
2023/01/21 07:48:56;;;;;;;48.37;21.97;;;2.00;99.90;;;;;;5032467;28;20457;-62
2023/01/21 07:51:25;;;;;;;47.83;22.90;;;1.90;99.90;;;;;;5032575;28;20980;-62
2023/01/21 07:53:55;;;;;;;39.60;21.53;;;1.90;99.90;;;;;;5032489;28;20477;-61
2023/01/21 07:56:25;;;;;;;44.07;22.23;;;1.90;99.90;;;;;;5032182;28;20468;-61
2023/01/21 07:58:53;;;;;;;40.73;21.47;;;1.80;99.90;;;;;;5035383;28;20483;-61
2023/01/21 08:01:25;;;;;;;37.13;20.97;;;1.80;99.90;;;;;;5036570;28;20558;-61
2023/01/21 08:03:53;;;;;;;39.47;21.83;;;1.80;99.90;;;;;;5044887;28;20460;-61
2023/01/21 08:06:21;;;;;;;39.23;20.53;;;1.90;99.90;;;;;;5038623;28;20468;-62
2023/01/21 08:08:51;;;;;;;43.20;22.13;;;2.10;99.90;;;;;;5031638;28;20464;-61
2023/01/21 08:11:19;;;;;;;42.40;21.40;;;2.00;99.90;;;;;;5031788;28;20471;-61
2023/01/21 08:13:49;;;;;;;39.40;19.50;;;1.90;99.90;;;;;;5031669;28;20465;-61
2023/01/21 08:16:17;;;;;;;36.10;19.10;;;1.90;99.90;;;;;;5032044;28;21001;-61
2023/01/21 08:18:45;;;;;;;37.57;19.03;;;1.70;99.90;;;;;;5031353;28;20598;-61
2023/01/21 08:21:13;;;;;;;35.20;18.23;;;1.70;99.90;;;;;;5032267;28;21016;-62
2023/01/21 08:23:41;;;;;;;37.43;18.80;;;1.70;99.90;;;;;;5034437;28;20462;-61
2023/01/21 08:26:10;;;;;;;38.37;18.83;;;1.90;99.90;;;;;;5034674;28;20464;-61
2023/01/21 08:28:38;;;;;;;36.70;18.33;;;1.90;99.90;;;;;;5047120;28;20463;-61
2023/01/21 08:31:08;;;;;;;34.77;19.03;;;2.00;99.90;;;;;;5043753;28;21022;-61
2023/01/21 08:33:36;;;;;;;37.90;18.97;;;1.90;99.90;;;;;;5048451;28;20813;-61
2023/01/21 08:36:07;;;;;;;39.70;20.20;;;2.00;99.90;;;;;;5047233;28;20466;-62
2023/01/21 08:38:36;;;;;;;37.80;19.90;;;1.90;99.90;;;;;;5055404;28;20551;-61
2023/01/21 08:41:04;;;;;;;36.13;18.13;;;1.90;99.90;;;;;;5055714;28;20478;-61
2023/01/21 08:43:34;;;;;;;33.90;18.97;;;2.00;99.90;;;;;;5055220;28;20475;-61
2023/01/21 08:46:02;;;;;;;37.93;17.27;;;1.90;99.90;;;;;;5055504;28;20473;-61
2023/01/21 08:48:30;;;;;;;42.13;20.83;;;2.10;99.90;;;;;;5055461;28;20475;-61
2023/01/21 08:50:59;;;;;;;41.13;19.57;;;2.00;99.90;;;;;;5044593;28;20480;-61
2023/01/21 08:53:28;;;;;;;34.87;18.87;;;1.90;99.90;;;;;;5033915;28;20476;-62
2023/01/21 08:55:59;;;;;;;46.33;18.57;;;1.90;99.90;;;;;;5034982;28;20899;-61
2023/01/21 08:58:28;;;;;;;32.37;17.53;;;1.80;99.90;;;;;;5037477;28;20467;-61
2023/01/21 09:00:58;;;;;;;35.07;17.63;;;1.80;99.90;;;;;;5034838;28;20472;-61
2023/01/21 09:03:26;;;;;;;33.70;17.87;;;1.70;99.90;;;;;;5034821;28;20468;-61
2023/01/21 09:05:54;;;;;;;33.00;16.90;;;1.70;99.90;;;;;;5035353;28;20472;-61
2023/01/21 09:08:22;;;;;;;39.03;18.00;;;1.70;99.90;;;;;;5035273;28;20974;-61
2023/01/21 09:11:02;;;;;;;31.00;16.37;;;1.70;99.90;;;;;;5033979;28;20464;-61
2023/01/21 09:13:32;;;;;;;34.37;16.37;;;1.80;99.90;;;;;;5038709;28;20485;-62
2023/01/21 09:16:01;;;;;;;29.17;16.30;;;1.80;99.90;;;;;;5045531;28;20539;-61
2023/01/21 09:18:30;;;;;;;39.37;17.83;;;1.80;99.90;;;;;;5033867;28;20951;-63
2023/01/21 09:21:01;;;;;;;34.63;17.37;;;1.80;99.90;;;;;;5028767;28;20475;-63
2023/01/21 09:23:32;;;;;;;42.80;17.63;;;1.70;99.90;;;;;;5029470;28;20481;-61
2023/01/21 09:26:03;;;;;;;37.47;17.13;;;1.70;99.90;;;;;;5034357;28;20466;-61
2023/01/21 09:28:32;;;;;;;33.77;18.10;;;1.80;99.90;;;;;;5045158;28;20472;-61
2023/01/21 09:31:04;;;;;;;37.27;18.03;;;1.80;99.90;;;;;;5045988;28;20471;-60
2023/01/21 09:33:35;;;;;;;30.60;16.77;;;1.80;99.90;;;;;;5050262;28;20504;-61
2023/01/21 09:36:05;;;;;;;34.00;17.87;;;1.90;99.90;;;;;;5041013;28;20821;-61
2023/01/21 09:38:33;;;;;;;35.17;17.97;;;1.90;99.90;;;;;;5034162;28;20479;-61
2023/01/21 09:41:12;;;;;;;35.30;18.50;;;1.90;99.90;;;;;;5032613;28;20472;-61
2023/01/21 09:43:43;;;;;;;33.80;16.97;;;1.90;99.90;;;;;;5046179;28;21097;-61
2023/01/21 09:46:18;;;;;;;32.67;17.93;;;1.80;99.90;;;;;;5044945;28;20562;-61
2023/01/21 09:48:48;;;;;;;36.57;18.07;;;1.80;99.90;;;;;;5045683;28;20467;-61
2023/01/21 09:51:22;;;;;;;28.87;16.93;;;1.80;99.90;;;;;;5047487;28;20974;-61
2023/01/21 09:53:54;;;;;;;34.63;17.63;;;1.80;99.90;;;;;;5049131;28;20484;-61
2023/01/21 09:56:28;;;;;;;31.00;16.70;;;1.80;99.90;;;;;;5049665;28;20450;-61
2023/01/21 09:59:03;;;;;;;31.73;16.87;;;1.80;99.90;;;;;;5046652;28;20479;-61
2023/01/21 10:01:36;;;;;;;37.33;17.27;;;1.70;99.90;;;;;;5048309;28;20490;-62
2023/01/21 10:04:24;;;;;;;33.93;16.87;;;1.80;99.90;;;;;;5049706;28;20486;-61
2023/01/21 10:06:57;;;;;;;29.27;16.30;;;1.70;99.90;;;;;;5046603;28;20532;-61
2023/01/21 10:09:49;;;;;;;26.67;16.17;;;1.80;99.90;;;;;;5049257;28;20477;-61
2023/01/21 10:12:30;;;;;;;27.67;16.10;;;1.80;99.90;;;;;;5048811;28;20832;-61
2023/01/21 10:15:21;;;;;;;30.43;15.90;;;1.80;99.90;;;;;;5049329;28;20821;-61
2023/01/21 10:17:56;;;;;;;27.37;15.13;;;1.90;99.90;;;;;;5039451;28;20479;-61
2023/01/21 10:20:27;;;;;;;26.23;15.07;;;1.90;99.90;;;;;;5039940;28;20466;-61
2023/01/21 10:22:59;;;;;;;21.87;13.53;;;2.00;99.90;;;;;;5046340;28;20486;-61
2023/01/21 10:25:31;;;;;;;26.73;15.63;;;2.10;99.90;;;;;;5048575;28;20475;-61
2023/01/21 10:28:04;;;;;;;30.53;15.47;;;2.10;99.90;;;;;;5048569;28;20871;-61
2023/01/21 10:30:37;;;;;;;27.17;16.37;;;2.10;99.90;;;;;;5046476;28;20461;-61
2023/01/21 10:33:17;;;;;;;31.97;15.87;;;2.00;99.90;;;;;;5046823;28;20471;-61
2023/01/21 10:36:08;;;;;;;25.17;15.10;;;2.00;99.90;;;;;;5046216;28;20470;-61
2023/01/21 10:38:44;;;;;;;28.53;15.33;;;1.90;99.90;;;;;;5044338;28;20472;-61
2023/01/21 10:41:30;;;;;;;23.00;14.70;;;1.90;99.90;;;;;;5044352;28;20853;-61
2023/01/21 10:44:07;;;;;;;24.80;14.80;;;1.90;99.90;;;;;;5045373;28;20476;-61
2023/01/21 10:46:44;;;;;;;26.03;14.87;;;1.90;99.90;;;;;;5047657;28;20796;-61
2023/01/21 10:49:25;;;;;;;24.63;15.67;;;1.90;99.90;;;;;;5045478;28;20472;-61
2023/01/21 10:52:02;;;;;;;27.10;15.93;;;1.90;99.90;;;;;;5045790;28;20471;-62
2023/01/21 10:54:42;;;;;;;25.03;14.87;;;1.90;99.90;;;;;;5046353;28;20993;-61
2023/01/21 10:57:20;;;;;;;24.80;15.77;;;1.90;99.90;;;;;;5044131;28;20462;-61
2023/01/21 10:59:49;;;;;;;25.63;15.47;;;1.90;99.90;;;;;;5045071;28;20466;-61
2023/01/21 11:02:24;;;;;;;22.80;14.70;;;1.90;99.90;;;;;;5044845;28;20476;-61
2023/01/21 11:04:57;;;;;;;25.07;15.77;;;1.90;99.90;;;;;;5046298;28;20476;-61
2023/01/21 11:07:25;;;;;;;23.00;15.47;;;1.90;99.90;;;;;;5043587;28;20473;-61
2023/01/21 11:09:54;;;;;;;23.60;14.70;;;1.90;99.90;;;;;;5045780;28;20476;-61
2023/01/21 11:12:23;;;;;;;23.67;15.23;;;2.00;99.90;;;;;;5044639;28;20467;-61
2023/01/21 11:14:56;;;;;;;23.33;15.40;;;2.00;99.90;;;;;;5044069;28;20459;-61
2023/01/21 11:17:33;;;;;;;23.27;14.73;;;2.00;99.90;;;;;;5043431;28;20482;-61
2023/01/21 11:20:06;;;;;;;22.97;14.30;;;2.00;99.90;;;;;;5045406;28;20462;-61
2023/01/21 11:22:42;;;;;;;25.70;15.77;;;2.10;99.90;;;;;;5044389;28;20487;-61
2023/01/21 11:25:25;;;;;;;26.33;15.37;;;2.20;99.90;;;;;;5038733;28;20959;-61
2023/01/21 11:27:53;;;;;;;24.27;15.33;;;2.30;99.90;;;;;;5038142;28;20872;-61
2023/01/21 11:30:31;;;;;;;25.90;15.40;;;2.30;99.90;;;;;;5044045;28;20470;-61
2023/01/21 11:33:25;;;;;;;26.53;15.70;;;2.30;99.90;;;;;;5046926;28;20486;-61
2023/01/21 11:35:57;;;;;;;26.13;16.77;;;2.30;99.90;;;;;;5044332;28;20470;-60
2023/01/21 11:38:33;;;;;;;27.87;16.80;;;2.30;99.90;;;;;;5049412;28;20995;-60
2023/01/21 11:41:07;;;;;;;26.47;17.27;;;2.30;99.90;;;;;;5052429;28;20463;-61
2023/01/21 11:43:41;;;;;;;28.10;17.47;;;2.40;99.90;;;;;;5017248;28;20494;-61
2023/01/21 11:46:37;;;;;;;31.37;18.07;;;2.50;99.90;;;;;;5032651;28;20978;-61
2023/01/21 11:49:26;;;;;;;27.13;16.47;;;2.50;99.90;;;;;;5008851;28;20483;-61
2023/01/21 11:52:22;;;;;;;30.17;17.73;;;2.60;99.90;;;;;;5032387;28;20470;-61
2023/01/21 11:54:50;;;;;;;28.83;16.53;;;2.60;99.90;;;;;;5008786;28;20498;-61
2023/01/21 11:57:26;;;;;;;27.77;17.17;;;2.70;99.90;;;;;;5018928;28;20470;-61
2023/01/21 12:00:00;;;;;;;31.07;17.00;;;2.60;99.90;;;;;;5047776;28;20466;-61
2023/01/21 12:02:42;;;;;;;30.97;17.63;;;2.60;99.90;;;;;;5050673;28;20460;-61
2023/01/21 12:05:16;;;;;;;30.00;17.17;;;2.80;99.90;;;;;;5027873;28;20543;-61
2023/01/21 12:07:49;;;;;;;29.23;17.87;;;2.80;99.90;;;;;;5036000;28;20473;-61
2023/01/21 12:10:26;;;;;;;28.47;17.57;;;2.80;99.90;;;;;;5036220;28;20463;-61
2023/01/21 12:13:18;;;;;;;32.50;18.03;;;3.00;99.90;;;;;;5038786;28;20474;-60
2023/01/21 12:16:04;;;;;;;27.43;16.57;;;3.00;99.90;;;;;;5049308;28;20473;-61
2023/01/21 12:18:51;;;;;;;29.17;16.67;;;3.00;99.90;;;;;;5047732;28;20814;-61
2023/01/21 12:21:29;;;;;;;26.13;16.57;;;3.10;99.90;;;;;;5047689;28;20460;-61
2023/01/21 12:24:13;;;;;;;27.97;16.50;;;3.00;99.90;;;;;;5050385;28;20478;-61
2023/01/21 12:26:45;;;;;;;27.97;16.53;;;2.90;99.90;;;;;;5050362;28;20472;-61
2023/01/21 12:29:29;;;;;;;27.90;16.90;;;3.00;99.90;;;;;;5050453;28;20825;-61
2023/01/21 12:32:01;;;;;;;28.00;18.17;;;3.10;99.90;;;;;;5047675;28;20475;-61
2023/01/21 12:34:34;;;;;;;27.23;17.57;;;3.20;99.90;;;;;;5049036;28;20456;-61
2023/01/21 12:37:05;;;;;;;27.13;17.23;;;3.30;99.90;;;;;;5050491;28;20486;-61
2023/01/21 12:39:37;;;;;;;27.80;17.03;;;3.30;99.90;;;;;;5050658;28;20494;-61
2023/01/21 12:42:10;;;;;;;27.57;17.63;;;3.40;99.90;;;;;;5050688;28;20533;-61
2023/01/21 12:44:43;;;;;;;22.87;15.97;;;3.40;99.90;;;;;;5049912;28;20574;-61
2023/01/21 12:47:21;;;;;;;23.17;15.60;;;3.30;99.90;;;;;;5049787;28;20473;-61
2023/01/21 12:50:08;;;;;;;24.73;15.97;;;3.30;99.90;;;;;;5049904;28;20485;-61
2023/01/21 12:52:44;;;;;;;24.67;15.70;;;3.30;99.90;;;;;;5036867;28;20486;-60
2023/01/21 12:55:22;;;;;;;25.63;16.70;;;3.50;99.90;;;;;;5045365;28;20470;-61
2023/01/21 12:57:56;;;;;;;27.43;16.63;;;3.40;99.90;;;;;;5045008;28;20468;-61
2023/01/21 13:00:27;;;;;;;23.93;15.50;;;3.40;99.90;;;;;;5046583;28;20468;-60
2023/01/21 13:03:08;;;;;;;24.53;16.27;;;3.40;99.90;;;;;;5045499;28;20504;-61
2023/01/21 13:05:44;;;;;;;24.20;16.03;;;3.30;99.90;;;;;;5045761;28;21595;-61